Terminal Aerodrome Forecast
Issued by NWS Austin/San Antonio, TX

Home | Current Version | Previous Version | Text Only | Print | Product List | Glossary On
Versions: 1 2 3 4 5 6 7 8 9 10 11 12 13 14
000
FTUS44 KEWX 210530
TAFAUS
TAF
KAUS 210530Z 2106/2212 12008KT P6SM SCT025 BKN040
     FM210700 13007KT P6SM BKN015
     FM211100 12008KT 6SM -SHRA BR OVC007
     FM211800 17010KT P6SM -SHRA OVC015=

USA.gov is the U.S. government's official web portal to all federal, state and local government web resources and services.